createdAt,value
2023-07-31T00:01:41.312Z,5.55
2023-07-31T00:04:12.656Z,6.28
2023-07-31T00:06:44.992Z,6.13
2023-07-31T00:09:18.303Z,5.20
2023-07-31T00:11:51.263Z,5.20
2023-07-31T00:16:54.921Z,5.90
2023-07-31T00:19:28.593Z,4.78
2023-07-31T00:21:56.779Z,5.82
2023-07-31T00:24:24.415Z,6.30
2023-07-31T00:26:52.021Z,4.57
2023-07-31T00:29:20.521Z,6.22
2023-07-31T00:31:51.064Z,5.90
2023-07-31T00:34:19.723Z,5.22
2023-07-31T00:36:50.190Z,6.07
2023-07-31T00:39:23.173Z,6.60
2023-07-31T00:41:55.786Z,5.05
2023-07-31T00:44:23.524Z,4.97
2023-07-31T00:46:59.998Z,6.30
2023-07-31T00:49:30.777Z,6.10
2023-07-31T00:52:03.690Z,5.68
2023-07-31T00:54:31.468Z,5.25
2023-07-31T00:56:59.118Z,4.82
2023-07-31T00:59:32.981Z,6.75
2023-07-31T01:02:09.506Z,5.00
2023-07-31T01:04:39.853Z,6.25
2023-07-31T01:07:34.903Z,5.35
2023-07-31T01:10:36.162Z,5.55
2023-07-31T01:13:13.261Z,4.70
2023-07-31T01:15:41.739Z,5.10
2023-07-31T01:18:16.357Z,4.28
2023-07-31T01:20:58.346Z,6.70
2023-07-31T01:23:46.541Z,5.47
2023-07-31T01:26:27.112Z,5.90
2023-07-31T01:29:15.370Z,4.80
2023-07-31T01:31:49.810Z,5.38
2023-07-31T01:34:24.742Z,4.60
2023-07-31T01:36:55.357Z,5.05
2023-07-31T01:39:26.847Z,5.10
2023-07-31T01:42:00.597Z,5.18
2023-07-31T01:44:31.592Z,5.22
2023-07-31T01:47:01.462Z,5.72
2023-07-31T01:49:34.261Z,5.38
2023-07-31T01:52:10.649Z,7.13
2023-07-31T01:54:41.230Z,5.10
2023-07-31T01:57:22.593Z,5.40
2023-07-31T01:59:55.700Z,5.30
2023-07-31T02:04:59.632Z,5.30
2023-07-31T02:07:34.988Z,5.20
2023-07-31T02:10:14.621Z,5.35
2023-07-31T02:12:48.708Z,5.53
2023-07-31T02:15:22.297Z,6.03
2023-07-31T02:17:55.334Z,5.82
2023-07-31T02:20:25.443Z,5.45
2023-07-31T02:23:01.611Z,5.50
2023-07-31T02:25:34.663Z,4.25
2023-07-31T02:28:12.864Z,4.30
2023-07-31T02:30:55.287Z,5.38
2023-07-31T02:33:34.922Z,6.53
2023-07-31T02:36:08.690Z,6.03
2023-07-31T02:38:38.530Z,4.30
2023-07-31T02:41:08.352Z,5.53
2023-07-31T02:43:43.501Z,5.63
2023-07-31T02:46:13.256Z,5.85
2023-07-31T02:48:43.489Z,5.50
2023-07-31T02:51:15.359Z,5.40
2023-07-31T02:53:45.761Z,4.95
2023-07-31T02:56:15.738Z,5.25
2023-07-31T02:58:43.217Z,5.72
2023-07-31T03:01:13.480Z,5.22
2023-07-31T03:03:43.009Z,5.63
2023-07-31T03:06:13.813Z,4.28
2023-07-31T03:08:47.310Z,5.97
2023-07-31T03:11:16.219Z,5.03
2023-07-31T03:13:46.888Z,5.13
2023-07-31T03:18:50.339Z,5.55
2023-07-31T03:21:20.163Z,5.55
2023-07-31T03:23:50.082Z,7.10
2023-07-31T03:26:20.265Z,5.70
2023-07-31T03:28:56.371Z,6.53
2023-07-31T03:31:29.725Z,13.88
2023-07-31T03:34:08.101Z,14.80
2023-07-31T03:36:45.506Z,17.20
2023-07-31T03:39:23.917Z,14.98
2023-07-31T03:42:09.673Z,15.00
2023-07-31T03:44:45.831Z,16.35
2023-07-31T03:47:19.844Z,12.65
2023-07-31T03:49:55.844Z,15.75
2023-07-31T03:52:31.764Z,13.05
2023-07-31T03:55:07.817Z,9.63
2023-07-31T03:57:44.212Z,10.93
2023-07-31T04:00:17.332Z,12.20
2023-07-31T04:02:59.159Z,15.13
2023-07-31T04:05:40.765Z,10.25
2023-07-31T04:08:14.054Z,10.50
2023-07-31T04:10:48.528Z,12.18
2023-07-31T04:13:19.098Z,11.63
2023-07-31T04:15:53.259Z,13.77
2023-07-31T04:18:29.198Z,10.43
2023-07-31T04:21:05.614Z,10.07
2023-07-31T04:23:43.926Z,16.05
2023-07-31T04:26:11.655Z,12.73
2023-07-31T04:28:44.504Z,12.90
2023-07-31T04:31:23.071Z,10.32
2023-07-31T04:33:58.945Z,11.82
2023-07-31T04:36:35.377Z,10.77
2023-07-31T04:39:14.343Z,9.88
2023-07-31T04:41:47.649Z,11.23
2023-07-31T04:44:15.797Z,9.70
2023-07-31T04:46:54.404Z,10.38
2023-07-31T04:49:33.482Z,11.73
2023-07-31T04:52:09.608Z,9.63
2023-07-31T04:54:42.477Z,9.93
2023-07-31T04:57:15.938Z,12.65
2023-07-31T04:59:51.626Z,9.60
2023-07-31T05:02:22.432Z,10.32
2023-07-31T05:04:53.343Z,8.93
2023-07-31T05:07:31.377Z,8.05
2023-07-31T05:10:07.585Z,10.45
2023-07-31T05:12:45.855Z,9.48
2023-07-31T05:15:18.848Z,9.82
2023-07-31T05:18:00.465Z,11.45
2023-07-31T05:20:38.025Z,9.88
2023-07-31T05:23:09.940Z,9.40
2023-07-31T05:25:45.606Z,12.80
2023-07-31T05:28:19.629Z,9.02
2023-07-31T05:30:55.321Z,10.90
2023-07-31T05:35:53.549Z,9.00
2023-07-31T05:38:25.084Z,8.27
2023-07-31T05:40:57.242Z,7.22
2023-07-31T05:43:27.490Z,8.73
2023-07-31T05:45:57.701Z,9.98
2023-07-31T05:48:25.426Z,9.25
2023-07-31T05:50:58.450Z,8.68
2023-07-31T05:53:26.087Z,8.48
2023-07-31T05:56:01.799Z,9.10
2023-07-31T05:58:32.133Z,9.18
2023-07-31T06:01:02.284Z,8.23
2023-07-31T06:03:32.503Z,9.77
2023-07-31T06:06:05.979Z,6.78
2023-07-31T06:11:10.493Z,7.68
2023-07-31T06:13:43.833Z,9.43
2023-07-31T06:16:16.876Z,9.65
2023-07-31T06:18:50.220Z,8.75
2023-07-31T06:21:24.321Z,7.07
2023-07-31T06:23:55.998Z,7.15
2023-07-31T06:26:26.064Z,9.00
2023-07-31T06:28:58.789Z,6.70
2023-07-31T06:31:27.137Z,7.40
2023-07-31T06:33:57.857Z,8.15
2023-07-31T06:36:31.097Z,7.78
2023-07-31T06:39:04.978Z,8.45
2023-07-31T06:41:43.348Z,8.02
2023-07-31T06:44:20.291Z,8.52
2023-07-31T06:46:48.255Z,7.07
2023-07-31T06:49:21.814Z,7.68
2023-07-31T06:51:57.781Z,9.15
2023-07-31T06:54:28.944Z,7.53
2023-07-31T06:57:00.325Z,7.22
2023-07-31T06:59:31.120Z,7.70
2023-07-31T07:02:06.912Z,7.30
2023-07-31T07:04:38.450Z,7.25
2023-07-31T07:07:09.041Z,7.15
2023-07-31T07:09:40.264Z,7.32
2023-07-31T07:12:13.973Z,7.88
2023-07-31T07:14:48.974Z,7.25
2023-07-31T07:17:24.412Z,7.28
2023-07-31T07:19:57.274Z,7.25
2023-07-31T07:22:33.581Z,8.50
2023-07-31T07:25:11.516Z,7.07
2023-07-31T07:27:44.342Z,6.53
2023-07-31T07:30:26.183Z,7.63
2023-07-31T07:33:05.195Z,7.75
2023-07-31T07:35:42.195Z,7.82
2023-07-31T07:38:17.034Z,6.90
2023-07-31T07:40:54.633Z,6.82
2023-07-31T07:43:36.501Z,9.80
2023-07-31T07:46:15.778Z,6.80
2023-07-31T07:48:49.736Z,5.47
2023-07-31T07:51:20.781Z,6.22
2023-07-31T07:53:55.088Z,7.55
2023-07-31T07:56:38.829Z,7.15
2023-07-31T07:59:17.106Z,7.40
2023-07-31T08:01:53.339Z,5.43
2023-07-31T08:04:36.255Z,6.55
2023-07-31T08:07:07.004Z,5.90
2023-07-31T08:09:53.613Z,5.97
2023-07-31T08:12:25.690Z,5.88
2023-07-31T08:14:58.725Z,7.28
2023-07-31T08:17:30.857Z,5.82
2023-07-31T08:20:05.172Z,6.43
2023-07-31T08:22:39.248Z,4.85
2023-07-31T08:25:15.105Z,5.97
2023-07-31T08:27:53.894Z,6.07
2023-07-31T08:30:26.954Z,6.35
2023-07-31T08:33:03.419Z,5.93
2023-07-31T08:35:31.292Z,6.03
2023-07-31T08:38:07.525Z,7.78
2023-07-31T08:40:43.547Z,5.78
2023-07-31T08:43:16.686Z,6.07
2023-07-31T08:45:54.013Z,6.57
2023-07-31T08:48:33.632Z,7.32
2023-07-31T08:51:03.903Z,5.57
2023-07-31T08:53:38.292Z,5.68
2023-07-31T09:01:17.077Z,5.80
2023-07-31T09:03:55.604Z,5.60
2023-07-31T09:06:32.434Z,5.90
2023-07-31T09:09:11.592Z,6.00
2023-07-31T09:11:50.225Z,7.07
2023-07-31T09:14:32.047Z,6.47
2023-07-31T09:17:04.693Z,5.15
2023-07-31T09:19:49.270Z,3.95
2023-07-31T09:22:42.343Z,6.07
2023-07-31T09:25:28.020Z,6.20
2023-07-31T09:28:13.660Z,4.82
2023-07-31T09:30:53.300Z,4.30
2023-07-31T09:33:27.087Z,5.10
2023-07-31T09:36:04.980Z,4.38
2023-07-31T09:38:43.361Z,5.32
2023-07-31T09:41:14.541Z,3.72
2023-07-31T09:44:02.320Z,5.28
2023-07-31T09:46:31.618Z,6.57
2023-07-31T09:49:14.812Z,4.68
2023-07-31T09:51:50.654Z,4.63
2023-07-31T09:54:26.492Z,4.40
2023-07-31T09:56:56.283Z,4.45
2023-07-31T09:59:29.934Z,4.13
2023-07-31T10:02:01.591Z,4.38
2023-07-31T10:04:31.627Z,3.75
2023-07-31T10:07:03.418Z,4.63
2023-07-31T10:09:35.295Z,3.35
2023-07-31T10:12:13.217Z,4.15
2023-07-31T10:14:49.287Z,4.38
2023-07-31T10:17:27.421Z,3.58
2023-07-31T10:20:02.290Z,2.97
2023-07-31T10:22:35.536Z,3.67
2023-07-31T10:25:09.427Z,4.45
2023-07-31T10:27:43.585Z,5.65
2023-07-31T10:30:20.232Z,2.67
2023-07-31T10:32:51.327Z,4.05
2023-07-31T10:35:25.310Z,4.55
2023-07-31T10:37:54.680Z,4.05
2023-07-31T10:40:28.836Z,3.58
2023-07-31T10:43:00.935Z,4.45
2023-07-31T10:45:46.024Z,3.72
2023-07-31T10:48:15.300Z,2.97
2023-07-31T10:50:53.656Z,3.33
2023-07-31T10:53:35.556Z,3.97
2023-07-31T10:56:15.350Z,3.92
2023-07-31T10:59:02.308Z,3.58
2023-07-31T11:01:54.068Z,4.10
2023-07-31T11:04:26.996Z,3.75
2023-07-31T11:07:11.780Z,4.53
2023-07-31T11:09:42.356Z,3.10
2023-07-31T11:12:11.235Z,3.92
2023-07-31T11:14:42.285Z,3.10
2023-07-31T11:17:12.680Z,3.78
2023-07-31T11:19:43.307Z,2.83
2023-07-31T11:22:22.664Z,2.92
2023-07-31T11:24:57.889Z,3.50
2023-07-31T11:27:29.958Z,3.05
2023-07-31T11:30:11.108Z,5.07
2023-07-31T11:32:46.233Z,2.95
2023-07-31T11:35:19.750Z,3.60
2023-07-31T11:37:52.674Z,3.92
2023-07-31T11:40:32.898Z,3.65
2023-07-31T11:43:05.734Z,4.13
2023-07-31T11:45:37.468Z,3.97
2023-07-31T11:48:08.388Z,5.35
2023-07-31T11:50:38.787Z,3.78
2023-07-31T11:53:12.362Z,3.85
2023-07-31T11:55:51.953Z,2.65
2023-07-31T11:58:34.855Z,2.85
2023-07-31T12:01:16.855Z,3.50
2023-07-31T12:03:50.158Z,4.32
2023-07-31T12:06:18.956Z,3.92
2023-07-31T12:08:52.902Z,2.20
2023-07-31T12:11:31.481Z,2.50
2023-07-31T12:14:01.618Z,3.10
2023-07-31T12:16:38.269Z,3.30
2023-07-31T12:21:42.215Z,2.22
2023-07-31T12:24:15.423Z,2.97
2023-07-31T12:26:53.721Z,2.95
2023-07-31T12:29:27.306Z,3.70
2023-07-31T12:32:00.581Z,2.85
2023-07-31T12:34:36.404Z,3.97
2023-07-31T12:37:05.034Z,3.22
2023-07-31T12:39:38.134Z,3.15
2023-07-31T12:42:06.629Z,2.35
2023-07-31T12:44:35.584Z,3.30
2023-07-31T12:47:11.892Z,2.45
2023-07-31T12:49:42.298Z,3.88
2023-07-31T12:52:10.025Z,3.10
2023-07-31T12:54:47.371Z,4.15
2023-07-31T12:57:18.243Z,2.67
2023-07-31T12:59:46.104Z,2.67
2023-07-31T13:02:19.825Z,2.25
2023-07-31T13:04:52.387Z,4.00
2023-07-31T13:07:21.358Z,3.55
2023-07-31T13:09:52.806Z,3.70
2023-07-31T13:12:23.412Z,2.60
2023-07-31T13:14:54.529Z,3.25
2023-07-31T13:17:27.936Z,5.30
2023-07-31T13:22:26.010Z,3.88
2023-07-31T13:25:00.180Z,3.55
2023-07-31T13:27:28.128Z,2.80
2023-07-31T13:30:07.571Z,4.20
2023-07-31T13:32:43.669Z,2.60
2023-07-31T13:35:14.567Z,2.70
2023-07-31T13:37:45.436Z,2.80
2023-07-31T13:40:13.223Z,2.00
2023-07-31T13:42:48.558Z,2.78
2023-07-31T13:45:24.518Z,4.95
2023-07-31T13:47:58.196Z,3.60
2023-07-31T13:50:31.266Z,2.92
2023-07-31T13:53:08.677Z,3.05
2023-07-31T13:55:42.632Z,3.05
2023-07-31T13:58:15.765Z,2.67
2023-07-31T14:00:49.247Z,3.00
2023-07-31T14:03:21.617Z,2.03
2023-07-31T14:05:56.723Z,2.60
2023-07-31T14:08:30.665Z,3.63
2023-07-31T14:11:03.292Z,3.03
2023-07-31T14:13:36.815Z,2.70
2023-07-31T14:16:09.179Z,3.00
2023-07-31T14:18:39.553Z,2.60
2023-07-31T14:21:10.720Z,2.85
2023-07-31T14:23:43.686Z,4.47
2023-07-31T14:26:19.462Z,2.90
2023-07-31T14:28:51.971Z,3.25
2023-07-31T14:31:24.832Z,2.67
2023-07-31T14:33:58.025Z,2.45
2023-07-31T14:36:38.229Z,4.40
2023-07-31T14:39:10.618Z,2.13
2023-07-31T14:41:44.593Z,3.13
2023-07-31T14:44:12.317Z,3.20
2023-07-31T14:46:42.832Z,3.72
2023-07-31T14:49:19.779Z,4.00
2023-07-31T14:54:21.381Z,4.65
2023-07-31T14:56:53.063Z,3.55
2023-07-31T14:59:23.797Z,3.72
2023-07-31T15:01:52.025Z,3.22
2023-07-31T15:04:28.962Z,2.40
2023-07-31T15:07:02.744Z,2.50
2023-07-31T15:09:38.296Z,3.50
2023-07-31T15:12:14.723Z,3.28
2023-07-31T15:14:49.310Z,2.80
2023-07-31T15:17:24.659Z,2.65
2023-07-31T15:19:52.770Z,2.55
2023-07-31T15:22:22.897Z,4.13
2023-07-31T15:24:53.175Z,1.60
2023-07-31T15:27:26.752Z,3.10
2023-07-31T15:30:01.368Z,2.80
2023-07-31T15:32:29.341Z,4.32
2023-07-31T15:35:02.203Z,3.80
2023-07-31T15:37:35.174Z,4.32
2023-07-31T15:40:03.766Z,2.53
2023-07-31T15:42:39.058Z,3.38
2023-07-31T15:45:13.661Z,2.53
2023-07-31T15:47:44.173Z,4.10
2023-07-31T15:50:14.978Z,2.28
2023-07-31T15:52:45.908Z,4.28
2023-07-31T15:55:18.994Z,3.53
2023-07-31T15:57:52.179Z,4.43
2023-07-31T16:00:22.337Z,2.53
2023-07-31T16:02:53.853Z,3.47
2023-07-31T16:05:24.402Z,3.00
2023-07-31T16:07:56.908Z,4.55
2023-07-31T16:10:29.816Z,3.15
2023-07-31T16:13:00.956Z,3.15
2023-07-31T16:15:33.998Z,3.58
2023-07-31T16:18:07.429Z,2.80
2023-07-31T16:20:37.624Z,2.95
2023-07-31T16:23:09.499Z,2.72
2023-07-31T16:25:45.628Z,4.60
2023-07-31T16:28:21.307Z,3.03
2023-07-31T16:30:53.100Z,2.28
2023-07-31T16:33:29.465Z,2.55
2023-07-31T16:36:01.887Z,4.35
2023-07-31T16:38:34.116Z,4.05
2023-07-31T16:41:12.927Z,3.00
2023-07-31T16:43:57.551Z,3.42
2023-07-31T16:46:37.757Z,4.47
2023-07-31T16:49:14.882Z,2.90
2023-07-31T16:51:43.279Z,2.53
2023-07-31T16:54:19.888Z,3.55
2023-07-31T16:56:59.860Z,2.50
2023-07-31T16:59:39.214Z,2.35
2023-07-31T17:02:21.336Z,4.13
2023-07-31T17:05:11.350Z,3.45
2023-07-31T17:07:49.468Z,2.42
2023-07-31T17:10:32.924Z,3.90
2023-07-31T17:13:13.899Z,2.80
2023-07-31T17:15:49.200Z,2.80
2023-07-31T17:18:25.500Z,3.33
2023-07-31T17:21:01.720Z,2.78
2023-07-31T17:23:38.043Z,3.47
2023-07-31T17:26:14.400Z,3.45
2023-07-31T17:28:45.764Z,3.35
2023-07-31T17:31:22.098Z,3.03
2023-07-31T17:34:01.022Z,2.10
2023-07-31T17:36:34.999Z,2.45
2023-07-31T17:39:13.544Z,3.35
2023-07-31T17:41:45.466Z,3.38
2023-07-31T17:44:21.425Z,4.07
2023-07-31T17:47:00.281Z,3.15
2023-07-31T17:49:44.144Z,2.85
2023-07-31T17:52:23.245Z,2.92
2023-07-31T17:55:02.056Z,3.67
2023-07-31T17:57:37.789Z,2.95
2023-07-31T18:00:20.769Z,2.35
2023-07-31T18:02:56.794Z,2.88
2023-07-31T18:05:32.004Z,3.33
2023-07-31T18:08:07.941Z,2.90
2023-07-31T18:10:51.044Z,3.13
2023-07-31T18:13:27.222Z,2.45
2023-07-31T18:16:06.381Z,2.38
2023-07-31T18:18:43.551Z,3.47
2023-07-31T18:21:24.654Z,2.85
2023-07-31T18:23:58.256Z,2.47
2023-07-31T18:26:38.678Z,2.40
2023-07-31T18:29:15.657Z,2.42
2023-07-31T18:31:57.157Z,3.03
2023-07-31T18:34:33.985Z,2.88
2023-07-31T18:37:08.271Z,2.00
2023-07-31T18:39:47.222Z,3.03
2023-07-31T18:42:21.964Z,2.33
2023-07-31T18:44:59.807Z,2.08
2023-07-31T18:47:33.132Z,2.80
2023-07-31T18:52:50.267Z,3.30
2023-07-31T18:55:26.826Z,3.97
2023-07-31T18:58:05.247Z,4.05
2023-07-31T19:00:38.979Z,2.83
2023-07-31T19:03:12.670Z,3.03
2023-07-31T19:05:49.230Z,3.05
2023-07-31T19:08:30.781Z,2.67
2023-07-31T19:11:14.885Z,3.00
2023-07-31T19:13:57.491Z,4.07
2023-07-31T19:16:31.334Z,2.53
2023-07-31T19:19:07.853Z,2.88
2023-07-31T19:21:48.961Z,2.53
2023-07-31T19:24:34.421Z,2.70
2023-07-31T19:27:13.889Z,2.92
2023-07-31T19:29:53.341Z,2.95
2023-07-31T19:32:29.398Z,2.95
2023-07-31T19:35:07.911Z,3.00
2023-07-31T19:37:46.111Z,2.20
2023-07-31T19:40:26.961Z,2.85
2023-07-31T19:43:01.310Z,3.05
2023-07-31T19:45:40.789Z,3.03
2023-07-31T19:48:21.226Z,3.58
2023-07-31T19:50:54.486Z,2.55
2023-07-31T19:56:06.139Z,1.48
2023-07-31T19:58:45.275Z,2.72
2023-07-31T20:01:26.597Z,3.25
2023-07-31T20:04:02.591Z,2.97
2023-07-31T20:06:39.397Z,3.45
2023-07-31T20:09:14.428Z,2.25
2023-07-31T20:11:53.138Z,2.75
2023-07-31T20:14:31.320Z,2.92
2023-07-31T20:17:04.948Z,2.15
2023-07-31T20:19:43.838Z,3.70
2023-07-31T20:22:20.981Z,2.78
2023-07-31T20:24:56.747Z,3.13
2023-07-31T20:27:29.951Z,2.67
2023-07-31T20:30:06.083Z,2.72
2023-07-31T20:32:39.560Z,2.78
2023-07-31T20:35:14.847Z,3.42
2023-07-31T20:37:54.449Z,3.05
2023-07-31T20:40:30.900Z,3.00
2023-07-31T20:43:05.340Z,3.35
2023-07-31T20:45:41.516Z,2.40
2023-07-31T20:48:21.631Z,2.35
2023-07-31T20:50:54.044Z,2.30
2023-07-31T20:53:28.302Z,2.80
2023-07-31T20:55:59.136Z,2.78
2023-07-31T20:58:34.914Z,3.88
2023-07-31T21:01:13.828Z,2.20
2023-07-31T21:03:46.497Z,2.75
2023-07-31T21:06:24.929Z,3.35
2023-07-31T21:09:05.198Z,2.13
2023-07-31T21:11:44.652Z,2.65
2023-07-31T21:14:23.084Z,3.55
2023-07-31T21:17:00.104Z,2.90
2023-07-31T21:19:30.604Z,3.00
2023-07-31T21:22:05.166Z,3.85
2023-07-31T21:24:38.821Z,2.55
2023-07-31T21:27:17.500Z,2.83
2023-07-31T21:29:53.420Z,3.03
2023-07-31T21:32:28.834Z,3.00
2023-07-31T21:35:04.769Z,2.70
2023-07-31T21:37:37.763Z,3.83
2023-07-31T21:40:14.434Z,3.90
2023-07-31T21:42:57.792Z,3.22
2023-07-31T21:45:31.407Z,5.47
2023-07-31T21:50:36.561Z,5.18
2023-07-31T21:53:13.681Z,5.35
2023-07-31T21:55:49.184Z,5.95
2023-07-31T21:58:25.279Z,5.13
2023-07-31T22:01:04.104Z,4.82
2023-07-31T22:03:42.749Z,5.72
2023-07-31T22:06:13.421Z,6.50
2023-07-31T22:08:43.634Z,7.68
2023-07-31T22:11:14.407Z,6.55
2023-07-31T22:13:55.985Z,5.70
2023-07-31T22:16:32.436Z,6.97
2023-07-31T22:19:00.216Z,5.53
2023-07-31T22:21:33.000Z,6.43
2023-07-31T22:24:12.124Z,7.70
2023-07-31T22:26:45.476Z,6.75
2023-07-31T22:31:52.288Z,6.20
2023-07-31T22:34:29.708Z,7.35
2023-07-31T22:37:05.915Z,8.63
2023-07-31T22:39:40.974Z,8.73
2023-07-31T22:42:13.475Z,6.90
2023-07-31T22:44:46.983Z,7.38
2023-07-31T22:47:20.275Z,7.07
2023-07-31T22:52:32.314Z,8.40
2023-07-31T22:55:05.671Z,7.88
2023-07-31T22:57:41.746Z,7.63
2023-07-31T23:00:16.383Z,8.13
2023-07-31T23:02:51.844Z,8.40
2023-07-31T23:05:22.515Z,8.40
2023-07-31T23:07:58.880Z,7.97
2023-07-31T23:10:37.740Z,8.63
2023-07-31T23:13:20.731Z,8.18
2023-07-31T23:15:57.758Z,9.20
2023-07-31T23:18:35.252Z,8.60
2023-07-31T23:21:14.081Z,8.30
2023-07-31T23:23:55.939Z,6.78
2023-07-31T23:26:30.356Z,8.10
2023-07-31T23:29:04.269Z,8.35
2023-07-31T23:31:46.354Z,8.55
2023-07-31T23:34:28.329Z,7.68
2023-07-31T23:36:58.750Z,7.88
2023-07-31T23:39:34.041Z,9.77
2023-07-31T23:42:12.677Z,8.55
2023-07-31T23:45:04.770Z,7.95
2023-07-31T23:47:43.544Z,9.18
2023-07-31T23:50:16.703Z,7.60
2023-07-31T23:52:49.262Z,7.68
2023-07-31T23:55:22.843Z,9.47
2023-07-31T23:58:07.102Z,8.63
